aviador You're here:

KALO Decoded Metar

WATERLOO in IA, USA
Report Time2017-10-23 10:54:00
UTC Time2017-10-23 11:23:28
Flight Rules vfr VFR
Wind170° at 06 kt
W.Decomp.*RWY 18: 5.8 kt HW 1.3 kt LCW
RWY 12: 4.1 kt HW 4.4 kt RCW
RWY 24: 1.8 kt HW 5.7 kt LCW
W.Rank170° ranks 2
Current wind is below 170° avg. (9.4)
Visibility9999 m
Phenomena:N/A
Clouds:N/A
Expected CloudBase > 800 ft AGL from Temp-Dew spread
CeilingNone
Temp06°C (ISA -7)
Dew Point04°C (87% RH)
AAT2.5°C
QNH1012 hPa
Density Alt138 ft
Elevation866 ft
Report Wrong Elevation
Raw Report
KALO 231054Z 17006KT 10SM CLR 06/04 A2988 RMK AO2 SLP122
T00560039=

Extra information for KALO:More info

Metar Taf Metar & Taf Last 4 Metars F.Rules Stats Wind Profile Meteogram Temp Stats Airport Information Weather charts Add Link Nearby VenuesMetar ALERT Operation Metar Decoded Social comments

AIRNAV info for KALO